• Join FlightAware (Why Join?)
  • Login
  • US Flag 
08:28AM EDT


 

Airport Tracker/Info


-or-


 

Live Flight TrackerFlight Track Log ✈ PDT4314 ✈ 30-Oct-2013 ✈ KPHL - KBGM

Flight Track Log - Related Links

Times and Time Zones

All times are in EDT time to prevent confusion due to time zone crossing. See the PDT4314 flight status page for this flight to view local times or setup timezone preferences in your user account.

Time Position Orientation Groundspeed Altitude Reporting Facility
EDT Latitude Longitude Course Direction KTS MPH feet Rate Location/Type
04:26PM 39.8833 -75.2167 37° Northeast 112 129 600  Level Philadelphia TRACON
04:27PM 39.9167 -75.1833 37° Northeast 137 158 2,200 1,380 Climbing Philadelphia TRACON
04:28PM 39.9500 -75.1667 21° North 126 145 3,600 1,140 Climbing Philadelphia TRACON
04:29PM 39.9833 -75.1667 360° North 128 147 4,600 1,020 Climbing Philadelphia TRACON
04:30PM 40.0333 -75.1667 360° North 154 177 5,800 1,140 Climbing Philadelphia TRACON
04:31PM 40.0667 -75.1667 360° North 149 171 7,000 1,140 Climbing Philadelphia TRACON
04:32PM 40.1000 -75.1833 339° North 129 148 7,900 780 Climbing Philadelphia TRACON
04:34PM 40.1214 -75.2769 287° West 156 180 9,100 420 Climbing New York Center
04:35PM 40.1356 -75.3347 288° West 178 205 9,100  Level New York Center
04:36PM 40.1639 -75.4100 296° West 203 234 9,100  Level New York Center
04:37PM 40.1886 -75.4769 296° West 213 245 9,100 -60 Level New York Center
04:38PM 40.2192 -75.5442 301° West 222 255 9,000 420 Descending New York Center
04:39PM 40.2564 -75.6039 309° West 228 262 10,000 1,020 Climbing New York Center
04:40PM 40.3100 -75.6131 353° North 177 204 11,100 900 Climbing New York Center
04:41PM 40.3575 -75.6272 347° North 171 197 11,900 420 Climbing New York Center
04:42PM 40.4072 -75.6308 357° North 183 211 12,000  Climbing New York Center
04:43PM 40.4675 -75.6406 353° North 201 231 12,000  Level New York Center
04:44PM 40.5378 -75.6536 352° North 228 262 12,000  Level New York Center
04:45PM 40.5994 -75.6692 349° North 228 262 12,000  Level New York Center
04:46PM 40.6636 -75.6819 351° North 233 268 12,000  Level New York Center
04:47PM 40.7258 -75.6917 353° North 233 268 12,000  Level New York Center
04:48PM 40.7817 -75.6986 355° North 233 268 12,000 -240 Level New York Center
04:49PM 40.8478 -75.7142 350° North 233 268 11,600 -840 Descending New York Center
04:50PM 40.9242 -75.7281 352° North 243 280 10,400 -840 Descending New York Center
04:51PM 40.9864 -75.7381 353° North 257 296 10,000 -240 Descending New York Center
04:52PM 41.0606 -75.7544 351° North 252 290 10,000  Level New York Center
04:53PM 41.1331 -75.7681 352° North 247 284 10,000  Level New York Center
04:54PM 41.1992 -75.7814 351° North 236 272 10,000  Level New York Center
04:55PM 41.2611 -75.7914 353° North 236 272 10,000  Level New York Center
04:56PM 41.3231 -75.8072 349° North 236 272 10,000  Level New York Center
04:57PM 41.3847 -75.8228 349° North 236 272 10,000  Level New York Center
04:58PM 41.4492 -75.8303 355° North 231 266 10,000  Level New York Center
04:59PM 41.5133 -75.8353 357° North 231 266 10,000 -540 Level New York Center
05:00PM 41.5792 -75.8569 346° North 238 274 9,000 -1,020 Descending New York Center
05:01PM 41.6367 -75.8750 347° North 238 274 8,000 -540 Descending New York Center
05:02PM 41.7031 -75.8831 355° North 238 274 8,000  Level New York Center
05:03PM 41.7736 -75.8856 358° North 232 267 8,000 -240 Level New York Center
05:04PM 41.8381 -75.8906 357° North 232 267 7,600 -780 Descending New York Center
05:05PM 41.9044 -75.8928 359° North 232 267 6,500 -1,200 Descending New York Center
05:06PM 41.9603 -75.9028 352° North 232 267 5,200 1,740 Descending New York Center
05:07PM 42.0258 -75.9247 346° North 239 275 10,000 -1,140 Climbing New York Center
05:08PM 42.1003 -75.9389 352° North 239 275 3,000  Descending New York Center
05:09PM 42.1497 -75.9483 352° North 217 250 10,000 -420 Climbing New York Center
05:10PM 42.1972 -75.9603 349° North 192 221 2,200 -7,800 Descending New York Center